Archival Weather

Snohomish County (Paine Fld)

Everett, Washington (KPAE)

Report from: Sunday, November 5, 2023 1:53 AM PDT
Current time: Monday, June 24, 2024 3:25 AM PDT

Current weather – Weather history – Daily summaries
Weather forecast

Temperature12.2°C (54.0°F)
Dew point9.4°C (48.9°F)
Winds 10 kts (5.1 m/s, 11.5 mph) South-Southeast (160°)
Wind gusts 19 kts (9.8 m/s, 21.9 mph)
Visibility10 mi. (16.1 km)
Clouds Ceiling: Overcast 1,100 ft. (335 m)
Altimeter29.84 in.Hg (1010 mB)
Relative humidity83 %
Density altitude-69 ft. (-21 m)
Sea-level pressure101.0 kPa (1010 mB, 29.84 in.Hg)
Remarks Fully automated report
Automated weather observing station with precipitation discriminator
Pressure rising, then falling
Flight conditions Marginal Visual Meteorological Conditions
Raw dataKPAE 050853Z AUTO 16010G19KT 10SM OVC011 12/09 A2984 RMK AO2 SLP104 T01220094 50003
An error has occurred. This application may no longer respond until reloaded. Reload 🗙